Time;durP1;ratioP1;P1;durP2;ratioP2;P2;SDS_P1;SDS_P2;PMS_P1;PMS_P2;Temp;Humidity;BMP_temperature;BMP_pressure;BME280_temperature;BME280_humidity;BME280_pressure;Samples;Min_cycle;Max_cycle;Signal;HPM_P1;HPM_P2
2023/04/18 00:00:47;;;;;;;;;6.40;5.20;;;;;10.69;63.53;98951.22;5107771;28;8823;-74
2023/04/18 00:03:20;;;;;;;;;4.20;4.20;;;;;10.65;63.60;98949.59;5107559;28;8898;-74
2023/04/18 00:05:49;;;;;;;;;5.80;4.40;;;;;10.66;63.47;98946.03;5107667;28;8859;-74
2023/04/18 00:08:18;;;;;;;;;3.40;3.40;;;;;10.50;63.59;98944.78;5107684;28;8864;-73
2023/04/18 00:10:47;;;;;;;;;7.40;6.00;;;;;10.32;64.59;98951.47;5107205;28;10053;-72
2023/04/18 00:13:17;;;;;;;;;4.80;4.80;;;;;10.57;63.66;98947.19;5107478;28;8844;-72
2023/04/18 00:15:46;;;;;;;;;10.80;8.00;;;;;10.66;63.25;98955.72;5109671;28;8909;-72
2023/04/18 00:18:16;;;;;;;;;7.60;7.00;;;;;10.44;63.92;98950.22;5100232;28;8890;-73
2023/04/18 00:20:46;;;;;;;;;6.40;6.40;;;;;10.51;63.75;98946.53;5090906;28;8926;-72
2023/04/18 00:23:15;;;;;;;;;3.80;3.80;;;;;10.56;63.30;98953.34;5091111;28;8838;-73
2023/04/18 00:25:44;;;;;;;;;7.40;6.20;;;;;10.54;63.25;98946.44;5090955;28;8868;-73
2023/04/18 00:28:13;;;;;;;;;6.00;6.00;;;;;10.60;62.90;98946.25;5022722;28;8854;-73
2023/04/18 00:30:41;;;;;;;;;7.40;6.40;;;;;10.27;64.10;98948.09;5072942;28;9027;-72
2023/04/18 00:33:10;;;;;;;;;8.00;8.00;;;;;10.37;63.57;98954.81;5077128;28;8859;-74
2023/04/18 00:35:39;;;;;;;;;7.80;7.80;;;;;10.34;63.50;98949.66;5042589;28;8852;-73
2023/04/18 00:38:10;;;;;;;;;8.20;6.80;;;;;10.54;62.98;98952.53;5111191;28;9511;-72
2023/04/18 00:40:40;;;;;;;;;9.00;6.60;;;;;10.43;62.99;98954.63;5110934;28;8844;-73
2023/04/18 00:43:09;;;;;;;;;6.60;6.60;;;;;10.18;63.89;98951.88;5067373;28;9021;-72
2023/04/18 00:45:41;;;;;;;;;6.80;5.40;;;;;10.36;63.25;98948.69;5003726;28;8848;-73
2023/04/18 00:48:11;;;;;;;;;9.40;8.00;;;;;10.21;63.84;98949.13;5050752;28;8963;-73
2023/04/18 00:50:40;;;;;;;;;7.00;7.00;;;;;10.38;63.16;98951.28;5067426;28;9683;-73
2023/04/18 00:53:11;;;;;;;;;7.60;7.00;;;;;10.56;62.43;98953.34;5046859;28;8870;-72
2023/04/18 00:55:41;;;;;;;;;8.80;7.00;;;;;10.43;62.63;98943.28;5047420;28;8839;-71
2023/04/18 00:58:09;;;;;;;;;7.20;7.20;;;;;10.40;62.27;98944.19;4998065;28;8858;-73
2023/04/18 01:00:38;;;;;;;;;6.40;5.40;;;;;10.56;61.67;98944.63;5026917;28;8868;-73
2023/04/18 01:03:09;;;;;;;;;7.00;6.00;;;;;10.60;61.35;98940.97;5027274;28;9730;-73
2023/04/18 01:05:38;;;;;;;;;7.00;6.40;;;;;10.60;60.94;98936.59;4987718;28;8880;-73
2023/04/18 01:08:07;;;;;;;;;7.20;7.00;;;;;10.64;60.59;98941.75;4971420;28;8919;-72
2023/04/18 01:10:37;;;;;;;;;4.40;4.40;;;;;10.70;60.55;98937.16;4987804;28;8841;-72
2023/04/18 01:13:17;;;;;;;;;5.00;5.00;;;;;10.88;60.08;98935.75;4971405;28;8860;-73
2023/04/18 01:15:48;;;;;;;;;5.60;4.00;;;;;10.52;60.52;98937.72;4991107;28;8883;-73
2023/04/18 01:18:18;;;;;;;;;6.20;4.80;;;;;10.45;60.58;98931.78;4991063;28;8977;-73
2023/04/18 01:20:48;;;;;;;;;3.80;3.80;;;;;10.42;60.76;98933.66;5015892;28;8915;-72
2023/04/18 01:23:18;;;;;;;;;6.60;6.60;;;;;10.59;60.03;98932.25;4969915;28;8972;-73
2023/04/18 01:25:49;;;;;;;;;3.20;2.80;;;;;10.64;59.91;98925.97;4973447;28;8876;-72
2023/04/18 01:28:20;;;;;;;;;5.60;5.60;;;;;10.28;60.78;98928.81;4967251;28;8880;-73
2023/04/18 01:30:49;;;;;;;;;4.60;3.60;;;;;10.30;60.55;98927.00;4967151;28;8902;-74
2023/04/18 01:33:18;;;;;;;;;6.40;6.40;;;;;10.55;59.83;98921.84;4967490;28;8900;-73
2023/04/18 01:35:48;;;;;;;;;4.80;4.80;;;;;10.19;61.13;98924.69;4970352;28;8855;-73
2023/04/18 01:38:17;;;;;;;;;6.40;4.80;;;;;10.09;61.16;98925.88;5015723;28;9007;-72
2023/04/18 01:40:46;;;;;;;;;1.00;1.00;;;;;10.26;60.51;98925.38;5010181;28;8853;-73
2023/04/18 01:43:17;;;;;;;;;3.60;3.60;;;;;10.10;61.28;98920.56;5033897;28;8974;-73
2023/04/18 01:45:45;;;;;;;;;4.80;4.80;;;;;10.09;61.31;98931.97;5046420;28;8881;-74
2023/04/18 01:48:14;;;;;;;;;6.80;6.80;;;;;10.20;60.74;98929.91;5028977;28;8873;-72
2023/04/18 01:50:43;;;;;;;;;2.20;2.00;;;;;10.16;60.81;98932.66;5046278;28;8886;-73
2023/04/18 01:53:13;;;;;;;;;6.20;5.20;;;;;10.26;60.56;98928.88;5045989;28;8870;-73
2023/04/18 01:55:44;;;;;;;;;5.20;5.20;;;;;10.30;60.64;98930.50;5070960;28;8845;-72
2023/04/18 01:58:14;;;;;;;;;3.80;3.80;;;;;10.55;59.25;98935.84;5036687;28;8966;-73
2023/04/18 02:00:45;;;;;;;;;6.20;5.80;;;;;10.23;60.47;98934.19;5005128;28;8854;-73
2023/04/18 02:03:13;;;;;;;;;6.80;6.00;;;;;10.40;60.26;98933.69;5089072;28;8842;-72
2023/04/18 02:05:43;;;;;;;;;4.80;4.80;;;;;10.51;59.58;98928.13;5029321;28;8897;-71
2023/04/18 02:08:11;;;;;;;;;6.00;6.00;;;;;10.51;59.55;98930.75;5109163;28;8883;-73
2023/04/18 02:10:41;;;;;;;;;5.20;5.20;;;;;10.31;60.04;98926.09;5090774;28;8871;-73
2023/04/18 02:13:10;;;;;;;;;3.80;3.20;;;;;10.36;60.02;98925.03;5087525;28;9631;-72
2023/04/18 02:15:39;;;;;;;;;4.20;4.20;;;;;10.21;60.24;98926.34;5069700;28;8846;-72
2023/04/18 02:18:10;;;;;;;;;6.20;6.20;;;;;10.27;60.13;98927.09;5070516;28;8927;-73
2023/04/18 02:20:40;;;;;;;;;4.00;4.00;;;;;9.94;60.63;98928.03;5070278;28;8880;-72
2023/04/18 02:23:09;;;;;;;;;3.40;2.40;;;;;10.21;60.09;98936.00;5088498;28;8854;-72
2023/04/18 02:25:38;;;;;;;;;4.20;3.40;;;;;10.20;59.75;98932.53;5081287;28;8882;-72
2023/04/18 02:28:07;;;;;;;;;4.80;3.40;;;;;10.32;59.57;98935.69;5090857;28;8906;-72
2023/04/18 02:30:36;;;;;;;;;2.00;2.00;;;;;10.10;59.68;98940.72;5091038;28;8979;-72
2023/04/18 02:33:04;;;;;;;;;2.60;2.60;;;;;10.02;60.16;98935.69;5056065;28;8883;-72
2023/04/18 02:35:37;;;;;;;;;3.00;3.00;;;;;10.01;59.91;98931.34;5108841;28;8867;-73
2023/04/18 02:38:05;;;;;;;;;3.80;3.20;;;;;9.98;60.33;98934.06;5039288;28;8855;-72
2023/04/18 02:40:34;;;;;;;;;5.40;2.60;;;;;9.80;60.72;98924.91;5108358;28;8883;-75
2023/04/18 02:43:03;;;;;;;;;3.00;3.00;;;;;9.85;60.36;98927.44;5108755;28;9007;-72
2023/04/18 02:45:32;;;;;;;;;5.00;3.40;;;;;9.98;60.09;98928.81;5090614;28;8863;-72
2023/04/18 02:48:01;;;;;;;;;2.40;2.40;;;;;9.92;59.96;98929.84;5090567;28;8963;-72
2023/04/18 02:50:30;;;;;;;;;2.60;2.60;;;;;9.94;60.02;98929.78;5065009;28;8855;-72
2023/04/18 02:53:01;;;;;;;;;2.40;2.40;;;;;10.10;59.40;98927.59;5032069;28;8934;-71
2023/04/18 02:55:42;;;;;;;;;1.00;1.00;;;;;9.87;59.80;98938.75;5048578;28;9653;-71
2023/04/18 02:58:12;;;;;;;;;2.40;2.40;;;;;9.92;59.44;98931.59;5048668;28;9667;-72
2023/04/18 03:00:59;;;;;;;;;1.00;1.00;;;;;9.91;59.00;98929.88;5065032;28;8867;-72
2023/04/18 03:03:45;;;;;;;;;2.00;2.00;;;;;10.12;58.19;98917.88;5065258;28;8881;-71
2023/04/18 03:06:26;;;;;;;;;1.00;1.00;;;;;9.88;58.73;98929.97;5065095;28;8960;-73
2023/04/18 03:08:56;;;;;;;;;1.20;1.20;;;;;9.90;58.54;98936.03;5045147;28;8928;-73
2023/04/18 03:11:26;;;;;;;;;1.20;1.00;;;;;9.92;58.55;98931.59;5050274;28;9028;-72
2023/04/18 03:13:56;;;;;;;;;1.00;1.00;;;;;9.82;58.64;98934.47;5029442;28;8943;-72
2023/04/18 03:16:31;;;;;;;;;1.40;1.40;;;;;9.79;58.70;98933.72;5028492;28;8881;-73
2023/04/18 03:19:00;;;;;;;;;1.00;1.00;;;;;9.95;58.19;98947.25;5028516;28;8842;-73
2023/04/18 03:21:30;;;;;;;;;1.80;1.80;;;;;9.85;58.46;98938.78;5042371;28;8915;-73
2023/04/18 03:24:00;;;;;;;;;1.20;1.20;;;;;9.95;58.21;98932.38;5067101;28;8886;-72
2023/04/18 03:26:29;;;;;;;;;1.00;1.00;;;;;9.92;58.05;98935.09;5078412;28;8840;-73
2023/04/18 03:28:58;;;;;;;;;2.00;2.00;;;;;9.78;58.43;98934.59;5088034;28;9686;-73
2023/04/18 03:31:27;;;;;;;;;10.80;9.60;;;;;9.73;58.51;98933.88;5086175;28;8839;-73
2023/04/18 03:33:56;;;;;;;;;1.00;1.00;;;;;9.74;58.76;98936.44;5086317;28;8851;-73
2023/04/18 03:36:26;;;;;;;;;1.60;1.60;;;;;9.80;58.45;98944.16;5052076;28;8843;-72
2023/04/18 03:38:55;;;;;;;;;2.20;2.00;;;;;9.56;59.35;98940.41;5028081;28;8876;-72
2023/04/18 03:41:26;;;;;;;;;1.40;1.00;;;;;9.71;58.57;98948.81;5011694;28;8860;-72
2023/04/18 03:43:57;;;;;;;;;2.40;1.40;;;;;9.72;58.53;98942.66;4996670;28;8867;-74
2023/04/18 03:46:27;;;;;;;;;1.40;1.00;;;;;9.52;58.88;98943.16;5044219;28;8879;-73
2023/04/18 03:48:57;;;;;;;;;1.80;1.80;;;;;9.65;58.65;98952.47;5028102;28;9017;-72
2023/04/18 03:51:27;;;;;;;;;1.00;1.00;;;;;9.79;58.13;98952.94;5031537;28;8859;-73
2023/04/18 03:53:56;;;;;;;;;10.00;10.00;;;;;9.80;57.88;98948.53;5032041;28;8860;-73
2023/04/18 03:56:27;;;;;;;;;1.00;1.00;;;;;9.89;57.73;98948.28;5048420;28;8867;-72
2023/04/18 03:58:57;;;;;;;;;1.00;1.00;;;;;9.61;58.45;98956.03;5031666;28;8872;-72
2023/04/18 04:01:27;;;;;;;;;1.40;1.40;;;;;9.89;57.51;98955.31;5031943;28;8844;-73
2023/04/18 04:03:55;;;;;;;;;2.00;2.00;;;;;10.01;56.98;98960.22;5014937;28;8860;-73
2023/04/18 04:06:26;;;;;;;;;1.80;1.80;;;;;9.88;57.19;98961.47;5031736;28;8863;-73
2023/04/18 04:08:55;;;;;;;;;1.00;1.00;;;;;9.93;56.95;98963.06;5048354;28;8998;-71
2023/04/18 04:11:27;;;;;;;;;0.20;0.20;;;;;9.94;56.81;98961.31;5090017;28;8903;-73
2023/04/18 04:13:56;;;;;;;;;1.00;1.00;;;;;9.89;56.92;98971.06;5090405;28;8867;-73
2023/04/18 04:16:31;;;;;;;;;1.40;1.40;;;;;9.74;57.05;98969.72;5090172;28;8855;-73
2023/04/18 04:19:00;;;;;;;;;3.40;3.00;;;;;9.61;57.73;98977.91;5082097;28;8870;-73
2023/04/18 04:21:37;;;;;;;;;2.00;1.00;;;;;9.66;57.77;98984.81;5069410;28;8847;-74
2023/04/18 04:24:08;;;;;;;;;0.60;0.60;;;;;9.76;57.23;98979.28;5069338;28;8935;-72
2023/04/18 04:26:43;;;;;;;;;1.00;1.00;;;;;9.80;57.24;98974.78;5021228;28;8869;-71
2023/04/18 04:29:15;;;;;;;;;1.00;1.00;;;;;9.83;56.94;98979.97;5069460;28;8865;-73
2023/04/18 04:31:47;;;;;;;;;2.40;2.40;;;;;9.59;57.92;98978.84;5069455;28;8877;-73
2023/04/18 04:34:24;;;;;;;;;5.20;5.20;;;;;9.70;57.67;98986.44;5069132;28;8884;-73
2023/04/18 04:36:54;;;;;;;;;6.80;6.80;;;;;9.75;57.42;98981.94;5053115;28;8839;-73
2023/04/18 04:39:25;;;;;;;;;1.00;1.00;;;;;9.68;57.34;98990.88;5083644;28;8952;-73
2023/04/18 04:42:16;;;;;;;;;2.00;2.00;;;;;9.67;57.25;98983.88;5027716;28;8869;-72
2023/04/18 04:44:54;;;;;;;;;1.80;1.80;;;;;9.65;57.43;98999.69;5010975;28;8873;-72
2023/04/18 04:47:24;;;;;;;;;1.00;1.00;;;;;9.76;56.95;98997.66;5010664;28;8979;-73
2023/04/18 04:49:54;;;;;;;;;2.00;2.00;;;;;9.64;57.25;98995.34;5010840;28;8876;-73
2023/04/18 04:52:23;;;;;;;;;1.20;1.20;;;;;9.78;56.80;98992.34;5026717;28;8886;-71
2023/04/18 04:54:52;;;;;;;;;2.00;2.00;;;;;9.84;56.67;99005.31;5010659;28;8873;-73
2023/04/18 04:57:25;;;;;;;;;1.60;1.00;;;;;9.86;56.70;98998.25;5013103;28;8872;-73
2023/04/18 04:59:54;;;;;;;;;3.80;2.60;;;;;9.78;57.26;99015.97;5012143;28;8888;-74
2023/04/18 05:02:23;;;;;;;;;2.40;2.40;;;;;9.86;56.41;99015.75;5009514;28;8872;-71
2023/04/18 05:04:52;;;;;;;;;2.40;2.40;;;;;9.93;56.26;99010.34;4977857;28;8983;-72
2023/04/18 05:07:21;;;;;;;;;2.40;2.40;;;;;9.90;56.42;99022.69;5007049;28;8879;-73
2023/04/18 05:09:52;;;;;;;;;1.00;1.00;;;;;10.22;55.69;99006.03;5007218;28;8872;-73
2023/04/18 05:12:20;;;;;;;;;3.00;2.60;;;;;10.28;55.12;99010.25;5007127;28;8950;-75
2023/04/18 05:14:50;;;;;;;;;4.60;4.40;;;;;10.41;55.26;99016.88;5006887;28;9109;-75
2023/04/18 05:17:19;;;;;;;;;3.00;2.20;;;;;10.49;55.13;99020.13;5009295;28;9597;-73
2023/04/18 05:19:48;;;;;;;;;2.00;2.00;;;;;10.53;54.45;99024.38;5063141;28;8859;-76
2023/04/18 05:22:17;;;;;;;;;3.00;3.00;;;;;10.20;55.50;99021.84;5089324;28;8831;-72
2023/04/18 05:24:46;;;;;;;;;4.20;4.20;;;;;10.30;55.37;99026.84;5086753;28;8872;-73
2023/04/18 05:27:15;;;;;;;;;2.00;2.00;;;;;10.37;55.17;99028.38;5089432;28;8872;-72
2023/04/18 05:29:46;;;;;;;;;1.00;1.00;;;;;10.36;55.12;99014.38;5089209;28;8878;-74
2023/04/18 05:32:17;;;;;;;;;4.20;4.20;;;;;10.62;54.61;99028.53;5076526;28;8856;-76
2023/04/18 05:34:45;;;;;;;;;4.20;4.20;;;;;10.72;54.27;99039.63;5089315;28;8902;-73
2023/04/18 05:37:15;;;;;;;;;1.00;1.00;;;;;10.67;54.12;99034.53;5087981;28;8867;-76
2023/04/18 05:39:43;;;;;;;;;2.80;2.00;;;;;10.55;54.60;99038.34;5087628;28;8871;-74
2023/04/18 05:42:12;;;;;;;;;2.40;2.00;;;;;10.62;54.52;99039.03;5087566;28;8855;-75
2023/04/18 05:44:41;;;;;;;;;2.20;2.20;;;;;10.63;54.47;99045.16;5017796;28;9662;-75
2023/04/18 05:47:10;;;;;;;;;1.80;1.80;;;;;10.57;54.68;99036.53;5033508;28;8858;-77
2023/04/18 05:49:40;;;;;;;;;3.00;3.00;;;;;10.57;54.87;99039.16;5067324;28;9608;-78
2023/04/18 05:52:10;;;;;;;;;1.80;1.80;;;;;10.70;54.54;99041.44;5069105;28;8846;-76
2023/04/18 05:54:38;;;;;;;;;3.20;3.20;;;;;10.40;55.08;99044.03;5069272;28;8912;-77
2023/04/18 05:57:07;;;;;;;;;2.20;2.20;;;;;10.32;55.55;99048.66;5013555;28;9076;-76
2023/04/18 05:59:36;;;;;;;;;3.40;2.40;;;;;10.33;55.55;99043.38;5045894;28;9016;-76
2023/04/18 06:02:11;;;;;;;;;2.00;2.00;;;;;10.46;54.60;99051.75;5035793;28;8956;-75
2023/04/18 06:04:42;;;;;;;;;3.40;3.40;;;;;10.34;54.63;99046.84;5046545;28;8866;-79
2023/04/18 06:07:12;;;;;;;;;2.60;2.60;;;;;10.45;54.61;99052.66;5030191;28;8889;-82
2023/04/18 06:09:40;;;;;;;;;6.60;4.40;;;;;10.43;54.65;99053.63;5044943;28;9001;-79
2023/04/18 06:12:10;;;;;;;;;3.00;2.40;;;;;10.59;53.97;99054.88;5067100;28;8876;-79
2023/04/18 06:14:38;;;;;;;;;1.80;1.80;;;;;10.48;54.18;99051.72;5017145;28;8848;-78
2023/04/18 06:17:08;;;;;;;;;2.00;2.00;;;;;10.38;54.39;99059.00;5067859;28;8858;-78
2023/04/18 06:19:39;;;;;;;;;3.00;3.00;;;;;10.53;53.95;99053.28;5066403;28;8928;-78
2023/04/18 06:22:09;;;;;;;;;5.40;3.00;;;;;10.62;53.80;99061.84;5066984;28;8941;-80
2023/04/18 06:24:38;;;;;;;;;4.00;2.60;;;;;10.47;54.18;99058.75;5049935;28;8976;-82
2023/04/18 06:27:07;;;;;;;;;4.00;4.00;;;;;10.71;53.63;99069.47;5067032;28;8871;-80
2023/04/18 06:29:48;;;;;;;;;4.00;4.00;;;;;10.79;53.36;99060.47;5051605;28;8886;-80
2023/04/18 06:32:17;;;;;;;;;4.80;4.00;;;;;11.02;52.61;99063.31;5068552;28;8959;-80
2023/04/18 06:34:45;;;;;;;;;2.80;2.80;;;;;10.91;53.03;99063.63;5067697;28;8850;-79
2023/04/18 06:37:16;;;;;;;;;3.20;3.20;;;;;10.95;52.69;99062.63;5069375;28;9620;-79
2023/04/18 06:39:45;;;;;;;;;6.00;6.00;;;;;10.96;52.53;99059.97;5063359;28;8899;-80
2023/04/18 06:42:14;;;;;;;;;4.20;4.00;;;;;11.00;52.63;99070.41;5073769;28;8834;-78
2023/04/18 06:44:48;;;;;;;;;4.80;3.80;;;;;11.10;52.30;99079.72;5044341;28;8839;-79
2023/04/18 06:47:17;;;;;;;;;2.60;2.60;;;;;11.10;52.23;99071.81;5049177;28;8865;-78
2023/04/18 06:49:46;;;;;;;;;3.60;3.00;;;;;11.02;52.66;99079.09;5046959;28;8861;-77
2023/04/18 06:52:16;;;;;;;;;3.00;3.00;;;;;11.20;52.10;99090.81;5048720;28;8864;-77
2023/04/18 06:54:44;;;;;;;;;3.00;3.00;;;;;11.31;51.51;99089.59;5047497;28;8942;-77
2023/04/18 06:57:14;;;;;;;;;6.40;5.60;;;;;11.35;51.97;99093.84;5047599;28;8877;-78
2023/04/18 06:59:42;;;;;;;;;3.80;3.80;;;;;11.61;50.93;99088.66;4997224;28;8853;-79
2023/04/18 07:02:12;;;;;;;;;7.60;6.00;;;;;11.68;51.10;99092.81;5047954;28;9045;-77
2023/04/18 07:04:40;;;;;;;;;2.00;2.00;;;;;11.73;50.39;99093.53;5068446;28;8843;-78
2023/04/18 07:07:10;;;;;;;;;6.00;3.80;;;;;11.85;50.26;99087.00;5063701;28;10238;-77
2023/04/18 07:09:40;;;;;;;;;6.20;6.20;;;;;11.65;50.67;99096.38;5031339;28;9005;-77
2023/04/18 07:12:09;;;;;;;;;9.40;9.00;;;;;11.86;50.63;99099.25;5072242;28;9691;-79
2023/04/18 07:14:37;;;;;;;;;4.40;4.40;;;;;11.81;50.05;99104.66;5067570;28;8848;-78
2023/04/18 07:17:07;;;;;;;;;6.60;6.60;;;;;11.88;50.22;99100.06;5086365;28;10091;-77
2023/04/18 07:19:36;;;;;;;;;4.80;3.20;;;;;11.89;49.82;99099.16;5058509;28;8891;-78
2023/04/18 07:22:05;;;;;;;;;3.00;3.00;;;;;11.67;49.88;99096.34;5083471;28;8844;-78
2023/04/18 07:24:33;;;;;;;;;9.00;8.20;;;;;11.59;50.69;99106.25;5087295;28;8848;-79
2023/04/18 07:27:04;;;;;;;;;6.20;6.20;;;;;11.74;50.50;99114.50;5044441;28;8910;-79
2023/04/18 07:29:33;;;;;;;;;8.60;7.00;;;;;11.51;51.33;99111.78;5038450;28;8892;-78
2023/04/18 07:32:02;;;;;;;;;7.00;6.20;;;;;11.66;51.24;99102.53;5037612;28;8874;-79
2023/04/18 07:34:35;;;;;;;;;7.00;6.00;;;;;11.55;50.68;99106.34;5025183;28;8852;-78
2023/04/18 07:37:04;;;;;;;;;8.00;8.00;;;;;11.63;50.71;99098.22;5037089;28;8904;-78
2023/04/18 07:39:34;;;;;;;;;6.00;6.00;;;;;11.60;51.24;99110.59;5025015;28;8870;-80
2023/04/18 07:42:05;;;;;;;;;6.40;6.40;;;;;11.38;51.31;99117.41;5004270;28;8866;-78
2023/04/18 07:44:35;;;;;;;;;6.20;6.20;;;;;11.58;51.17;99110.69;4980475;28;8854;-81
2023/04/18 07:47:08;;;;;;;;;8.00;6.20;;;;;11.32;51.78;99120.25;5028070;28;8862;-78
2023/04/18 07:49:38;;;;;;;;;7.80;7.00;;;;;11.67;51.30;99126.19;5027290;28;8876;-79
2023/04/18 07:52:07;;;;;;;;;7.20;7.00;;;;;11.60;50.84;99123.75;4975755;28;8828;-78
2023/04/18 07:54:35;;;;;;;;;9.00;8.00;;;;;11.70;50.53;99126.06;5024943;28;8860;-78
2023/04/18 07:57:06;;;;;;;;;8.00;7.40;;;;;11.87;50.65;99125.53;5035712;28;8916;-81
2023/04/18 07:59:35;;;;;;;;;6.80;6.80;;;;;11.85;50.08;99131.78;5016512;28;8880;-81
2023/04/18 08:02:04;;;;;;;;;6.40;6.40;;;;;11.85;49.60;99135.28;5066643;28;8866;-79
2023/04/18 08:04:32;;;;;;;;;5.40;4.40;;;;;12.10;48.80;99132.66;5011552;28;8981;-77
2023/04/18 08:07:02;;;;;;;;;6.40;6.00;;;;;11.85;49.74;99135.28;5067113;28;8866;-80
2023/04/18 08:09:30;;;;;;;;;7.60;6.00;;;;;11.97;49.43;99134.00;5062757;28;8872;-82
2023/04/18 08:11:59;;;;;;;;;7.40;6.60;;;;;12.24;49.22;99136.59;5086671;28;9075;-83
2023/04/18 08:14:29;;;;;;;;;7.00;7.00;;;;;12.25;48.44;99133.94;5063724;28;8874;-79
2023/04/18 08:17:00;;;;;;;;;6.20;6.20;;;;;12.18;49.09;99136.81;5064529;28;9970;-78
2023/04/18 08:19:29;;;;;;;;;7.00;7.00;;;;;12.18;48.60;99139.47;5047835;28;8860;-79
2023/04/18 08:22:09;;;;;;;;;7.20;5.80;;;;;12.67;47.32;99137.72;5033612;28;8836;-81
2023/04/18 08:24:38;;;;;;;;;7.20;5.20;;;;;12.71;47.61;99145.50;5049664;28;8955;-80
2023/04/18 08:27:07;;;;;;;;;4.60;4.60;;;;;12.83;46.88;99140.69;5062580;28;8879;-78
2023/04/18 08:29:38;;;;;;;;;8.60;5.20;;;;;12.80;46.88;99141.66;5058964;28;8850;-79
2023/04/18 08:32:08;;;;;;;;;5.60;4.00;;;;;12.87;46.28;99135.28;5024492;28;8850;-80
2023/04/18 08:34:37;;;;;;;;;8.40;7.00;;;;;12.83;46.79;99144.19;5019044;28;8867;-79
2023/04/18 08:37:06;;;;;;;;;7.20;7.00;;;;;12.87;46.70;99143.19;5051184;28;8864;-78
2023/04/18 08:39:35;;;;;;;;;5.60;5.60;;;;;13.13;46.20;99149.28;5049758;28;8915;-78
2023/04/18 08:42:06;;;;;;;;;7.20;7.20;;;;;13.16;45.73;99153.56;5044579;28;8844;-80
2023/04/18 08:44:36;;;;;;;;;7.00;3.80;;;;;13.47;45.37;99154.09;5019084;28;9600;-78
2023/04/18 08:47:08;;;;;;;;;9.20;8.60;;;;;13.60;45.52;99156.25;5068194;28;8974;-76
2023/04/18 08:49:37;;;;;;;;;8.60;8.20;;;;;13.68;45.67;99151.53;5085414;28;8980;-77
2023/04/18 08:52:11;;;;;;;;;8.40;8.40;;;;;14.00;44.86;99155.53;5072242;28;8882;-83
2023/04/18 08:54:43;;;;;;;;;11.40;9.40;;;;;13.75;45.81;99149.50;5076698;28;8903;-85
2023/04/18 08:57:15;;;;;;;;;9.60;8.60;;;;;13.96;45.68;99153.97;5071455;28;8890;-81
2023/04/18 08:59:45;;;;;;;;;7.20;7.20;;;;;14.08;45.15;99157.88;5076971;28;8858;-88
2023/04/18 09:02:22;;;;;;;;;7.80;6.80;;;;;13.96;45.29;99156.59;5073619;28;8838;-86
2023/04/18 09:04:52;;;;;;;;;8.60;8.60;;;;;13.97;45.09;99157.44;5064433;28;8953;-85
2023/04/18 09:07:28;;;;;;;;;7.80;7.80;;;;;13.80;45.15;99160.75;5067208;28;9736;-83
2023/04/18 09:09:58;;;;;;;;;7.60;7.60;;;;;14.07;44.95;99164.06;5089613;28;8867;-85
2023/04/18 09:12:31;;;;;;;;;8.40;8.40;;;;;14.09;44.41;99163.09;5088252;28;8859;-86
2023/04/18 09:15:11;;;;;;;;;6.20;6.20;;;;;14.31;44.30;99163.97;5093583;28;8881;-84
2023/04/18 09:17:48;;;;;;;;;8.60;8.60;;;;;14.30;44.16;99168.41;5044022;28;8830;-86
2023/04/18 09:20:33;;;;;;;;;8.20;7.60;;;;;14.12;44.54;99159.44;5077559;28;8964;-90
2023/04/18 09:23:04;;;;;;;;;11.20;10.20;;;;;14.30;44.42;99173.69;5076546;28;8854;-84
2023/04/18 09:25:37;;;;;;;;;9.40;9.00;;;;;14.46;43.81;99166.81;5067500;28;8856;-85
2023/04/18 09:28:23;;;;;;;;;14.80;11.00;;;;;14.52;43.89;99168.31;5072243;28;8953;-84
2023/04/18 09:30:53;;;;;;;;;9.80;9.80;;;;;14.35;43.95;99171.69;5079077;28;8881;-83
2023/04/18 09:33:28;;;;;;;;;12.40;11.00;;;;;14.66;43.82;99173.03;5076106;28;8953;-83
2023/04/18 09:36:15;;;;;;;;;7.20;7.20;;;;;14.83;43.01;99165.25;5091250;28;8866;-84
2023/04/18 09:38:44;;;;;;;;;10.00;9.00;;;;;14.91;42.87;99159.59;5058436;28;8960;-83
2023/04/18 09:41:15;;;;;;;;;7.20;5.60;;;;;14.95;42.85;99157.69;5094331;28;9045;-84
2023/04/18 09:43:49;;;;;;;;;6.40;6.40;;;;;15.12;42.63;99159.56;5098406;28;8960;-80
2023/04/18 09:46:21;;;;;;;;;8.60;8.60;;;;;15.32;42.06;99158.63;5075367;28;8857;-80
2023/04/18 09:48:51;;;;;;;;;10.20;10.20;;;;;15.09;42.30;99163.19;5096271;28;8845;-81
2023/04/18 09:51:20;;;;;;;;;7.80;7.80;;;;;15.29;41.92;99164.94;5091843;28;8987;-79
2023/04/18 09:53:49;;;;;;;;;10.00;10.00;;;;;15.54;41.83;99161.97;5103057;28;8863;-77
2023/04/18 09:56:24;;;;;;;;;10.60;10.60;;;;;15.49;41.42;99161.34;5085950;28;8840;-79
2023/04/18 09:58:57;;;;;;;;;8.60;8.60;;;;;15.64;41.27;99170.38;5082687;28;9731;-77
2023/04/18 10:01:28;;;;;;;;;11.40;10.20;;;;;15.72;40.82;99162.03;5097145;28;8869;-78
2023/04/18 10:04:02;;;;;;;;;10.80;10.80;;;;;15.57;41.03;99169.78;5104320;28;8863;-78
2023/04/18 10:06:37;;;;;;;;;8.80;8.20;;;;;15.32;41.41;99172.75;5094751;28;8841;-78
2023/04/18 10:09:09;;;;;;;;;11.00;11.00;;;;;15.45;41.52;99173.00;5091733;28;8850;-77
2023/04/18 10:11:38;;;;;;;;;11.20;9.20;;;;;15.40;41.23;99170.56;5099771;28;8857;-78
2023/04/18 10:14:11;;;;;;;;;7.40;7.40;;;;;15.40;41.31;99165.28;5106779;28;8872;-78
2023/04/18 10:16:41;;;;;;;;;9.60;9.60;;;;;15.64;40.99;99173.00;5116949;28;8869;-77
2023/04/18 10:19:30;;;;;;;;;6.20;5.40;;;;;15.66;39.89;99172.94;5104090;28;9565;-78
2023/04/18 10:22:00;;;;;;;;;7.00;6.00;;;;;15.73;39.98;99171.72;5009605;28;9646;-78
2023/04/18 10:24:47;;;;;;;;;7.60;6.80;;;;;15.77;40.40;99168.84;5019818;28;8865;-77
2023/04/18 10:27:16;;;;;;;;;10.80;7.40;;;;;15.60;40.21;99168.78;4936827;28;8873;-78
2023/04/18 10:29:49;;;;;;;;;0.80;0.80;;;;;15.82;40.13;99172.13;4970995;28;8854;-78
2023/04/18 10:32:19;;;;;;;;;11.60;8.80;;;;;15.86;40.04;99170.19;4970173;28;8908;-78
2023/04/18 10:34:52;;;;;;;;;7.80;7.80;;;;;15.81;40.20;99172.19;4969968;28;8874;-78
2023/04/18 10:37:20;;;;;;;;;7.20;6.80;;;;;15.89;39.72;99167.41;4970588;28;9612;-77
2023/04/18 10:39:55;;;;;;;;;9.60;8.00;;;;;16.01;39.11;99173.88;4986588;28;8914;-78
2023/04/18 10:42:57;;;;;;;;;6.20;6.20;;;;;16.39;38.97;99169.28;4982048;28;8892;-79
2023/04/18 10:45:30;;;;;;;;;7.00;7.00;;;;;15.96;39.43;99174.13;4960756;28;8866;-78
2023/04/18 10:48:28;;;;;;;;;6.80;6.80;;;;;15.88;38.97;99170.97;4988366;28;9709;-82
2023/04/18 10:51:23;;;;;;;;;7.20;7.20;;;;;15.82;39.28;99172.13;4978108;28;8862;-83
2023/04/18 10:53:54;;;;;;;;;5.40;5.40;;;;;15.66;39.38;99171.16;4901135;29;8920;-82
2023/04/18 10:56:24;;;;;;;;;9.20;9.20;;;;;15.86;39.30;99172.84;4911838;29;9671;-83
2023/04/18 10:58:56;;;;;;;;;8.20;8.20;;;;;16.01;38.87;99171.22;4964125;28;8865;-83
2023/04/18 11:01:27;;;;;;;;;6.80;5.40;;;;;15.65;39.30;99161.50;5012805;28;8954;-82
2023/04/18 11:04:00;;;;;;;;;7.00;7.00;;;;;15.82;39.17;99160.69;5031452;28;8866;-82
2023/04/18 11:06:31;;;;;;;;;9.80;6.60;;;;;15.73;38.85;99169.94;5048398;28;8862;-81
2023/04/18 11:09:10;;;;;;;;;5.60;5.60;;;;;15.47;39.72;99171.13;5047563;28;8870;-81
2023/04/18 11:11:40;;;;;;;;;6.00;6.00;;;;;15.30;39.93;99163.13;4989364;28;8855;-77
2023/04/18 11:14:09;;;;;;;;;10.00;9.80;;;;;15.16;40.57;99164.63;4989285;28;10145;-78
2023/04/18 11:16:38;;;;;;;;;10.00;10.00;;;;;15.08;40.73;99165.94;4989100;28;9690;-80
2023/04/18 11:19:22;;;;;;;;;7.00;7.00;;;;;15.34;40.46;99172.63;5009373;28;8854;-78
2023/04/18 11:21:53;;;;;;;;;11.00;10.40;;;;;15.29;40.33;99169.38;5036740;28;8967;-78
2023/04/18 11:24:23;;;;;;;;;10.00;10.00;;;;;14.88;41.06;99166.81;5012718;28;8854;-79
2023/04/18 11:26:54;;;;;;;;;13.60;12.80;;;;;15.06;40.85;99171.28;5045604;28;8874;-79
2023/04/18 11:29:23;;;;;;;;;14.00;11.00;;;;;15.03;41.21;99158.19;5029950;28;8874;-79
2023/04/18 11:31:53;;;;;;;;;7.00;7.00;;;;;15.10;40.90;99172.84;5050518;28;8843;-77
2023/04/18 11:34:29;;;;;;;;;11.80;11.20;;;;;15.06;40.94;99160.69;5108062;28;8847;-78
2023/04/18 11:36:59;;;;;;;;;12.20;11.20;;;;;15.26;40.51;99162.41;5090786;28;9670;-78
2023/04/18 11:39:28;;;;;;;;;11.00;11.00;;;;;15.32;40.21;99164.78;5108918;28;8979;-80
2023/04/18 11:42:00;;;;;;;;;13.80;13.80;;;;;15.20;40.59;99162.69;5086924;28;8884;-78
2023/04/18 11:44:29;;;;;;;;;13.80;12.60;;;;;15.28;40.54;99165.00;5070881;28;8849;-78
2023/04/18 11:46:58;;;;;;;;;9.20;9.20;;;;;15.38;40.06;99155.69;5109548;28;8927;-79
2023/04/18 11:49:28;;;;;;;;;11.00;11.00;;;;;15.30;40.47;99161.31;5100755;28;8859;-78
2023/04/18 11:51:57;;;;;;;;;10.00;7.80;;;;;14.94;40.80;99167.38;5094811;28;8848;-79
2023/04/18 11:54:38;;;;;;;;;10.00;10.00;;;;;15.07;40.79;99167.69;5094474;28;8873;-79
2023/04/18 11:57:19;;;;;;;;;12.60;11.60;;;;;15.12;40.84;99165.69;5073957;28;9711;-79
2023/04/18 11:59:50;;;;;;;;;11.80;10.20;;;;;14.90;41.63;99157.88;5102566;28;8898;-79